createdAt,value
2018-03-30T00:01:54.498Z,4.80
2018-03-30T00:04:21.186Z,4.80
2018-03-30T00:06:47.879Z,4.70
2018-03-30T00:09:20.403Z,4.63
2018-03-30T00:11:47.073Z,4.90
2018-03-30T00:14:13.746Z,6.37
2018-03-30T00:16:40.440Z,5.10
2018-03-30T00:19:07.118Z,4.33
2018-03-30T00:21:33.788Z,4.47
2018-03-30T00:24:00.613Z,4.30
2018-03-30T00:26:27.302Z,4.70
2018-03-30T00:28:53.974Z,4.50
2018-03-30T00:31:20.676Z,4.37
2018-03-30T00:33:47.352Z,4.30
2018-03-30T00:36:14.050Z,5.10
2018-03-30T00:38:40.735Z,4.53
2018-03-30T00:41:07.434Z,4.80
2018-03-30T00:43:34.198Z,4.47
2018-03-30T00:46:00.988Z,4.80
2018-03-30T00:48:27.683Z,5.00
2018-03-30T00:50:54.365Z,4.97
2018-03-30T00:53:27.154Z,3.80
2018-03-30T00:55:53.784Z,4.90
2018-03-30T00:58:20.589Z,4.47
2018-03-30T01:00:47.407Z,4.43
2018-03-30T01:03:14.064Z,4.50
2018-03-30T01:05:40.768Z,4.30
2018-03-30T01:08:07.448Z,6.10
2018-03-30T01:10:34.156Z,4.87
2018-03-30T01:13:00.845Z,4.40
2018-03-30T01:15:27.651Z,4.47
2018-03-30T01:17:54.326Z,4.90
2018-03-30T01:20:21.061Z,4.10
2018-03-30T01:22:47.733Z,4.77
2018-03-30T01:25:14.422Z,4.60
2018-03-30T01:27:41.123Z,5.00
2018-03-30T01:30:07.805Z,4.80
2018-03-30T01:32:34.514Z,4.33
2018-03-30T01:35:01.193Z,4.80
2018-03-30T01:37:27.866Z,4.90
2018-03-30T01:39:54.557Z,5.20
2018-03-30T01:42:21.273Z,4.70
2018-03-30T01:44:48.046Z,4.40
2018-03-30T01:47:14.717Z,4.00
2018-03-30T01:49:41.390Z,3.90
2018-03-30T01:52:08.149Z,4.27
2018-03-30T01:54:34.830Z,4.60
2018-03-30T01:57:01.523Z,4.73
2018-03-30T01:59:28.195Z,5.07
2018-03-30T02:01:54.889Z,4.60
2018-03-30T02:04:21.677Z,3.83
2018-03-30T02:06:48.418Z,4.60
2018-03-30T02:09:15.106Z,4.43
2018-03-30T02:11:41.777Z,5.13
2018-03-30T02:14:08.470Z,4.47
2018-03-30T02:16:35.145Z,4.93
2018-03-30T02:19:01.841Z,5.53
2018-03-30T02:21:28.522Z,4.50
2018-03-30T02:23:55.213Z,4.27
2018-03-30T02:26:21.885Z,4.80
2018-03-30T02:28:48.578Z,4.57
2018-03-30T02:31:15.247Z,4.67
2018-03-30T02:33:41.926Z,4.40
2018-03-30T02:36:08.722Z,4.70
2018-03-30T02:38:35.398Z,3.87
2018-03-30T02:41:02.069Z,5.03
2018-03-30T02:43:28.825Z,4.17
2018-03-30T02:45:55.517Z,4.70
2018-03-30T02:48:22.186Z,5.80
2018-03-30T02:50:48.886Z,4.93
2018-03-30T02:53:15.616Z,4.47
2018-03-30T02:55:42.308Z,4.30
2018-03-30T02:58:09.013Z,4.13
2018-03-30T03:00:35.685Z,4.13
2018-03-30T03:03:02.437Z,4.47
2018-03-30T03:05:29.118Z,5.17
2018-03-30T03:07:55.793Z,4.90
2018-03-30T03:10:22.477Z,5.80
2018-03-30T03:12:49.149Z,4.93
2018-03-30T03:15:15.850Z,5.07
2018-03-30T03:17:42.523Z,4.97
2018-03-30T03:20:09.413Z,4.90
2018-03-30T03:22:36.358Z,4.90
2018-03-30T03:25:03.017Z,4.67
2018-03-30T03:27:29.728Z,4.77
2018-03-30T03:29:56.465Z,5.10
2018-03-30T03:32:23.181Z,4.80
2018-03-30T03:34:49.856Z,5.00
2018-03-30T03:37:16.551Z,4.90
2018-03-30T03:39:43.271Z,5.03
2018-03-30T03:42:09.940Z,5.23
2018-03-30T03:44:36.822Z,4.80
2018-03-30T03:47:03.498Z,5.17
2018-03-30T03:49:30.184Z,4.90
2018-03-30T03:51:56.861Z,5.17
2018-03-30T03:54:23.573Z,4.03
2018-03-30T03:56:50.241Z,5.43
2018-03-30T03:59:16.947Z,5.23
2018-03-30T04:01:43.617Z,6.27
2018-03-30T04:04:10.349Z,4.87
2018-03-30T04:06:37.042Z,5.40
2018-03-30T04:09:03.732Z,5.50
2018-03-30T04:11:30.390Z,4.90
2018-03-30T04:13:57.061Z,5.67
2018-03-30T04:16:23.821Z,4.60
2018-03-30T04:18:50.489Z,4.97
2018-03-30T04:21:17.185Z,4.77
2018-03-30T04:23:43.861Z,4.53
2018-03-30T04:26:10.561Z,4.77
2018-03-30T04:28:37.274Z,4.77
2018-03-30T04:31:03.986Z,5.13
2018-03-30T04:33:30.673Z,4.70
2018-03-30T04:35:57.358Z,5.13
2018-03-30T04:38:24.020Z,4.03
2018-03-30T04:40:50.718Z,5.07
2018-03-30T04:43:17.411Z,4.83
2018-03-30T04:45:44.174Z,4.70
2018-03-30T04:48:10.870Z,5.23
2018-03-30T04:50:37.585Z,5.20
2018-03-30T04:53:04.297Z,5.90
2018-03-30T04:55:31.065Z,5.57
2018-03-30T04:57:57.757Z,5.03
2018-03-30T05:00:24.446Z,4.73
2018-03-30T05:02:51.113Z,4.83
2018-03-30T05:05:17.819Z,4.50
2018-03-30T05:07:44.484Z,4.77
2018-03-30T05:10:11.155Z,4.40
2018-03-30T05:12:37.854Z,4.60
2018-03-30T05:15:04.555Z,4.67
2018-03-30T05:17:31.248Z,4.63
2018-03-30T05:19:58.093Z,4.80
2018-03-30T05:22:24.775Z,4.27
2018-03-30T05:24:51.475Z,4.67
2018-03-30T05:27:18.180Z,4.67
2018-03-30T05:29:44.864Z,5.37
2018-03-30T05:32:11.544Z,5.47
2018-03-30T05:34:38.249Z,5.90
2018-03-30T05:37:05.017Z,6.37
2018-03-30T05:39:31.693Z,5.87
2018-03-30T05:41:58.397Z,6.83
2018-03-30T05:44:25.053Z,5.63
2018-03-30T05:46:51.725Z,6.03
2018-03-30T05:49:18.427Z,6.07
2018-03-30T05:51:45.213Z,5.80
2018-03-30T05:54:11.909Z,6.13
2018-03-30T05:56:38.600Z,5.73
2018-03-30T05:59:05.308Z,5.30
2018-03-30T06:01:32.164Z,5.43
2018-03-30T06:03:58.831Z,6.00
2018-03-30T06:06:25.533Z,6.67
2018-03-30T06:08:52.222Z,5.80
2018-03-30T06:11:18.934Z,5.00
2018-03-30T06:13:45.621Z,6.30
2018-03-30T06:16:12.313Z,7.60
2018-03-30T06:18:38.987Z,6.80
2018-03-30T06:21:05.677Z,7.17
2018-03-30T06:23:32.354Z,7.50
2018-03-30T06:25:59.109Z,6.83
2018-03-30T06:28:25.823Z,6.10
2018-03-30T06:30:52.513Z,7.13
2018-03-30T06:33:19.231Z,6.30
2018-03-30T06:35:45.941Z,6.97
2018-03-30T06:38:12.611Z,6.43
2018-03-30T06:40:39.320Z,5.93
2018-03-30T06:43:06.016Z,6.97
2018-03-30T06:45:32.696Z,6.33
2018-03-30T06:47:59.474Z,5.20
2018-03-30T06:50:26.169Z,6.03
2018-03-30T06:52:52.937Z,6.17
2018-03-30T06:55:19.609Z,6.50
2018-03-30T06:57:46.318Z,6.57
2018-03-30T07:00:12.989Z,5.87
2018-03-30T07:02:39.684Z,5.27
2018-03-30T07:05:06.360Z,5.90
2018-03-30T07:07:33.025Z,5.87
2018-03-30T07:09:59.791Z,6.00
2018-03-30T07:12:26.526Z,5.57
2018-03-30T07:14:53.950Z,5.20
2018-03-30T07:17:20.645Z,6.03
2018-03-30T07:19:47.326Z,6.07
2018-03-30T07:22:14.068Z,5.70
2018-03-30T07:24:40.766Z,5.63
2018-03-30T07:27:07.459Z,5.13
2018-03-30T07:29:34.178Z,6.33
2018-03-30T07:32:00.905Z,5.47
2018-03-30T07:34:29.143Z,5.43
2018-03-30T07:36:55.830Z,5.60
2018-03-30T07:39:22.595Z,5.30
2018-03-30T07:41:49.730Z,6.13
2018-03-30T07:44:16.398Z,5.43
2018-03-30T07:46:43.133Z,4.50
2018-03-30T07:49:10.224Z,4.30
2018-03-30T07:51:36.917Z,5.40
2018-03-30T07:54:03.601Z,5.20
2018-03-30T07:56:30.297Z,5.00
2018-03-30T07:58:56.978Z,5.70
2018-03-30T08:01:23.697Z,4.70
2018-03-30T08:03:50.369Z,5.00
2018-03-30T08:06:17.902Z,4.17
2018-03-30T08:08:44.766Z,5.00
2018-03-30T08:11:11.473Z,4.30
2018-03-30T08:13:38.265Z,4.40
2018-03-30T08:16:04.962Z,5.27
2018-03-30T08:18:31.685Z,4.90
2018-03-30T08:20:58.421Z,4.50
2018-03-30T08:23:25.111Z,4.37
2018-03-30T08:25:51.793Z,4.83
2018-03-30T08:28:18.484Z,4.77
2018-03-30T08:30:45.185Z,5.13
2018-03-30T08:33:11.980Z,5.50
2018-03-30T08:35:38.634Z,3.33
2018-03-30T08:38:05.370Z,4.03
2018-03-30T08:40:32.173Z,3.87
2018-03-30T08:42:58.966Z,3.97
2018-03-30T08:45:25.888Z,4.40
2018-03-30T08:47:52.676Z,3.30
2018-03-30T08:50:19.365Z,3.90
2018-03-30T08:52:46.062Z,3.23
2018-03-30T08:55:12.780Z,3.37
2018-03-30T08:57:39.455Z,3.43
2018-03-30T09:00:06.148Z,2.97
2018-03-30T09:02:32.834Z,3.33
2018-03-30T09:04:59.544Z,3.60
2018-03-30T09:07:26.259Z,2.67
2018-03-30T09:09:52.954Z,3.03
2018-03-30T09:12:20.761Z,3.20
2018-03-30T09:14:48.129Z,2.30
2018-03-30T09:17:15.353Z,2.50
2018-03-30T09:19:43.849Z,1.93
2018-03-30T09:22:10.544Z,2.10
2018-03-30T09:24:37.245Z,2.10
2018-03-30T09:27:04.990Z,2.50
2018-03-30T09:29:31.661Z,2.60
2018-03-30T09:31:58.352Z,2.57
2018-03-30T09:34:26.226Z,2.50
2018-03-30T09:36:53.005Z,1.77
2018-03-30T09:39:25.833Z,2.40
2018-03-30T09:41:52.522Z,2.50
2018-03-30T09:44:20.041Z,1.80
2018-03-30T09:46:48.080Z,1.90
2018-03-30T09:49:14.765Z,2.13
2018-03-30T09:51:41.465Z,2.27
2018-03-30T09:54:08.684Z,2.20
2018-03-30T09:56:36.338Z,2.20
2018-03-30T09:59:03.041Z,2.40
2018-03-30T10:01:29.711Z,2.83
2018-03-30T10:03:58.298Z,2.30
2018-03-30T10:06:24.981Z,2.20
2018-03-30T10:08:51.668Z,2.47
2018-03-30T10:11:18.359Z,2.30
2018-03-30T10:13:45.051Z,2.27
2018-03-30T10:16:11.758Z,1.93
2018-03-30T10:18:38.481Z,2.33
2018-03-30T10:21:05.194Z,2.40
2018-03-30T10:23:31.911Z,2.53
2018-03-30T10:25:58.637Z,2.27
2018-03-30T10:28:25.325Z,2.10
2018-03-30T10:30:52.025Z,2.50
2018-03-30T10:33:18.701Z,2.07
2018-03-30T10:35:45.398Z,2.03
2018-03-30T10:38:12.075Z,2.13
2018-03-30T10:40:38.763Z,2.40
2018-03-30T10:43:05.473Z,2.70
2018-03-30T10:45:32.186Z,2.00
2018-03-30T10:47:58.867Z,2.33
2018-03-30T10:50:25.546Z,2.30
2018-03-30T10:52:52.323Z,2.37
2018-03-30T10:55:19.054Z,2.40
2018-03-30T10:57:45.774Z,2.30
2018-03-30T11:00:12.469Z,2.50
2018-03-30T11:02:39.160Z,2.23
2018-03-30T11:05:05.844Z,2.47
2018-03-30T11:07:32.564Z,2.23
2018-03-30T11:09:59.405Z,2.50
2018-03-30T11:12:26.137Z,2.70
2018-03-30T11:14:52.908Z,2.37
2018-03-30T11:17:19.582Z,2.00
2018-03-30T11:19:46.368Z,2.37
2018-03-30T11:22:13.086Z,2.23
2018-03-30T11:24:39.874Z,2.10
2018-03-30T11:27:06.529Z,1.73
2018-03-30T11:29:33.200Z,2.20
2018-03-30T11:31:59.905Z,2.67
2018-03-30T11:34:26.609Z,2.10
2018-03-30T11:36:53.317Z,2.30
2018-03-30T11:39:20.010Z,2.80
2018-03-30T11:41:46.760Z,2.50
2018-03-30T11:44:13.449Z,2.53
2018-03-30T11:46:40.140Z,2.37
2018-03-30T11:49:06.825Z,3.00
2018-03-30T11:51:33.525Z,2.10
2018-03-30T11:54:00.213Z,2.60
2018-03-30T11:56:26.922Z,2.43
2018-03-30T11:58:53.664Z,2.33
2018-03-30T12:01:20.330Z,2.63
2018-03-30T12:03:47.113Z,2.20
2018-03-30T12:06:13.790Z,2.73
2018-03-30T12:08:40.630Z,2.33
2018-03-30T12:11:07.330Z,2.70
2018-03-30T12:13:34.042Z,2.30
2018-03-30T12:16:00.722Z,2.27
2018-03-30T12:18:27.420Z,1.87
2018-03-30T12:20:54.118Z,2.57
2018-03-30T12:23:20.838Z,2.03
2018-03-30T12:25:47.743Z,2.60
2018-03-30T12:28:14.433Z,2.10
2018-03-30T12:30:41.115Z,2.10
2018-03-30T12:33:07.788Z,2.40
2018-03-30T12:35:34.480Z,2.47
2018-03-30T12:38:01.173Z,2.13
2018-03-30T12:40:27.867Z,2.50
2018-03-30T12:42:54.553Z,1.43
2018-03-30T12:45:21.258Z,1.90
2018-03-30T12:47:47.937Z,1.90
2018-03-30T12:50:14.663Z,1.63
2018-03-30T12:52:41.372Z,2.10
2018-03-30T12:55:08.082Z,2.40
2018-03-30T12:57:34.786Z,1.40
2018-03-30T13:00:01.478Z,2.00
2018-03-30T13:02:28.154Z,1.80
2018-03-30T13:04:54.868Z,1.20
2018-03-30T13:07:21.566Z,1.30
2018-03-30T13:09:48.267Z,1.40
2018-03-30T13:12:14.955Z,1.33
2018-03-30T13:14:42.293Z,1.60
2018-03-30T13:17:09.858Z,1.40
2018-03-30T13:19:37.044Z,1.20
2018-03-30T13:22:04.277Z,1.20
2018-03-30T13:24:30.966Z,1.73
2018-03-30T13:26:57.659Z,1.30
2018-03-30T13:29:27.881Z,1.27
2018-03-30T13:31:54.610Z,1.20
2018-03-30T13:34:21.301Z,1.33
2018-03-30T13:36:47.965Z,1.30
2018-03-30T13:39:15.654Z,1.30
2018-03-30T13:41:42.353Z,1.50
2018-03-30T13:44:09.049Z,1.23
2018-03-30T13:46:35.742Z,1.40
2018-03-30T13:49:02.482Z,1.30
2018-03-30T13:51:35.465Z,2.17
2018-03-30T13:54:17.029Z,1.57
2018-03-30T13:56:46.650Z,1.30
2018-03-30T13:59:14.079Z,1.43
2018-03-30T14:01:40.801Z,1.33
2018-03-30T14:04:07.508Z,1.60
2018-03-30T14:06:37.029Z,1.50
2018-03-30T14:09:09.196Z,1.20
2018-03-30T14:11:35.861Z,1.30
2018-03-30T14:14:02.644Z,1.60
2018-03-30T14:16:31.049Z,1.40
2018-03-30T14:18:57.813Z,1.30
2018-03-30T14:21:24.505Z,1.10
2018-03-30T14:23:51.237Z,1.33
2018-03-30T14:26:17.949Z,1.20
2018-03-30T14:28:45.674Z,1.23
2018-03-30T14:31:15.967Z,1.40
2018-03-30T14:33:42.740Z,1.30
2018-03-30T14:36:12.247Z,1.00
2018-03-30T14:38:40.770Z,1.43
2018-03-30T14:41:07.457Z,1.50
2018-03-30T14:43:35.746Z,1.17
2018-03-30T14:46:17.309Z,1.53
2018-03-30T14:48:44.636Z,1.17
2018-03-30T14:51:16.163Z,1.00
2018-03-30T14:53:42.866Z,1.30
2018-03-30T14:56:09.554Z,1.40
2018-03-30T14:58:38.094Z,1.40
2018-03-30T15:01:04.794Z,1.60
2018-03-30T15:03:41.791Z,1.77
2018-03-30T15:06:19.815Z,1.30
2018-03-30T15:08:48.427Z,1.40
2018-03-30T15:11:20.262Z,1.23
2018-03-30T15:13:53.690Z,1.30
2018-03-30T15:16:21.138Z,1.33
2018-03-30T15:18:49.456Z,1.50
2018-03-30T15:21:19.038Z,1.53
2018-03-30T15:23:48.657Z,1.60
2018-03-30T15:26:15.403Z,1.83
2018-03-30T15:28:43.936Z,1.60
2018-03-30T15:31:25.513Z,1.67
2018-03-30T15:33:55.958Z,1.83
2018-03-30T15:36:24.373Z,2.30
2018-03-30T15:38:51.637Z,2.00
2018-03-30T15:41:18.322Z,1.60
2018-03-30T15:43:45.056Z,2.10
2018-03-30T15:46:12.609Z,3.20
2018-03-30T15:48:40.261Z,1.80
2018-03-30T15:51:13.676Z,1.60
2018-03-30T15:53:40.131Z,1.80
2018-03-30T15:56:07.752Z,1.80
2018-03-30T15:58:34.791Z,2.10
2018-03-30T16:01:01.485Z,2.00
2018-03-30T16:03:28.183Z,2.03
2018-03-30T16:05:55.796Z,1.70
2018-03-30T16:08:26.471Z,2.03
2018-03-30T16:11:08.989Z,2.53
2018-03-30T16:13:35.701Z,1.97
2018-03-30T16:16:02.410Z,1.70
2018-03-30T16:18:34.943Z,1.60
2018-03-30T16:21:01.417Z,1.70
2018-03-30T16:23:28.279Z,2.17
2018-03-30T16:25:55.762Z,2.03
2018-03-30T16:28:22.597Z,1.90
2018-03-30T16:30:49.598Z,2.17
2018-03-30T16:33:16.033Z,2.00
2018-03-30T16:35:42.470Z,2.37
2018-03-30T16:38:08.926Z,1.73
2018-03-30T16:40:36.193Z,1.90
2018-03-30T16:43:02.630Z,2.10
2018-03-30T16:45:29.092Z,1.83
2018-03-30T16:47:55.906Z,1.87
2018-03-30T16:50:22.358Z,2.13
2018-03-30T16:52:49.441Z,2.10
2018-03-30T16:55:16.825Z,2.17
2018-03-30T16:57:43.284Z,2.13
2018-03-30T17:00:09.823Z,2.40
2018-03-30T17:02:36.261Z,2.20
2018-03-30T17:05:03.597Z,2.05
2018-03-30T17:07:30.031Z,2.00
2018-03-30T17:09:56.510Z,2.20
2018-03-30T17:12:23.949Z,1.97
2018-03-30T17:14:51.740Z,1.43
2018-03-30T17:17:18.145Z,2.10
2018-03-30T17:19:44.615Z,2.20
2018-03-30T17:22:11.089Z,1.90
2018-03-30T17:24:37.633Z,1.97
2018-03-30T17:27:06.022Z,2.57
2018-03-30T17:29:33.308Z,1.93
2018-03-30T17:31:59.743Z,2.70
2018-03-30T17:34:26.218Z,2.47
2018-03-30T17:36:52.663Z,2.40
2018-03-30T17:39:19.110Z,2.77
2018-03-30T17:41:45.541Z,1.80
2018-03-30T17:44:11.986Z,2.70
2018-03-30T17:46:38.444Z,2.00
2018-03-30T17:49:04.889Z,2.13
2018-03-30T17:51:31.357Z,2.23
2018-03-30T17:53:57.790Z,2.43
2018-03-30T17:56:24.428Z,2.50
2018-03-30T17:58:51.373Z,2.00
2018-03-30T18:01:18.465Z,2.30
2018-03-30T18:03:45.570Z,2.60
2018-03-30T18:06:12.077Z,2.10
2018-03-30T18:08:38.526Z,2.17
2018-03-30T18:11:04.955Z,2.40
2018-03-30T18:13:32.157Z,2.27
2018-03-30T18:15:58.615Z,1.97
2018-03-30T18:18:26.868Z,2.47
2018-03-30T18:20:53.317Z,2.40
2018-03-30T18:23:20.408Z,1.80
2018-03-30T18:25:46.860Z,2.73
2018-03-30T18:28:13.318Z,2.30
2018-03-30T18:30:39.810Z,2.23
2018-03-30T18:33:06.284Z,2.10
2018-03-30T18:35:32.757Z,2.17
2018-03-30T18:37:59.920Z,2.17
2018-03-30T18:40:26.522Z,1.83
2018-03-30T18:42:53.593Z,2.37
2018-03-30T18:45:20.013Z,2.33
2018-03-30T18:47:47.443Z,2.33
2018-03-30T18:50:17.490Z,2.40
2018-03-30T18:52:43.922Z,2.60
2018-03-30T18:55:12.090Z,4.97
2018-03-30T18:57:39.387Z,4.10
2018-03-30T19:00:06.646Z,2.80
2018-03-30T19:02:33.100Z,3.60
2018-03-30T19:04:59.718Z,3.80
2018-03-30T19:07:26.173Z,4.90
2018-03-30T19:09:52.636Z,5.40
2018-03-30T19:12:20.044Z,5.50
2018-03-30T19:14:46.497Z,6.10
2018-03-30T19:17:12.937Z,4.90
2018-03-30T19:19:39.394Z,5.23
2018-03-30T19:22:06.056Z,5.80
2018-03-30T19:24:33.256Z,5.70
2018-03-30T19:26:59.959Z,5.10
2018-03-30T19:29:26.394Z,6.33
2018-03-30T19:31:53.441Z,5.27
2018-03-30T19:34:21.875Z,6.40
2018-03-30T19:36:48.326Z,5.17
2018-03-30T19:39:15.638Z,5.37
2018-03-30T19:41:43.050Z,5.40
2018-03-30T19:44:10.506Z,5.10
2018-03-30T19:46:37.040Z,4.67
2018-03-30T19:49:03.675Z,4.47
2018-03-30T19:51:30.138Z,4.03
2018-03-30T19:53:56.602Z,3.90
2018-03-30T19:56:23.056Z,5.60
2018-03-30T19:58:50.174Z,4.77
2018-03-30T20:01:17.649Z,4.50
2018-03-30T20:03:45.780Z,5.23
2018-03-30T20:06:13.061Z,6.67
2018-03-30T20:08:40.430Z,5.97
2018-03-30T20:11:06.972Z,5.73
2018-03-30T20:13:34.093Z,6.60
2018-03-30T20:16:00.574Z,6.93
2018-03-30T20:18:27.014Z,6.20
2018-03-30T20:20:53.450Z,4.17
2018-03-30T20:23:20.088Z,3.30
2018-03-30T20:25:46.549Z,3.33
2018-03-30T20:28:13.820Z,2.20
2018-03-30T20:30:41.076Z,2.57
2018-03-30T20:33:07.505Z,2.30
2018-03-30T20:35:34.043Z,2.27
2018-03-30T20:38:00.586Z,2.23
2018-03-30T20:40:27.035Z,2.47
2018-03-30T20:42:54.404Z,1.57
2018-03-30T20:45:21.681Z,2.10
2018-03-30T20:47:48.146Z,1.67
2018-03-30T20:50:14.583Z,1.40
2018-03-30T20:52:41.051Z,1.77
2018-03-30T20:55:07.706Z,1.70
2018-03-30T20:57:34.205Z,1.37
2018-03-30T21:00:01.613Z,1.37
2018-03-30T21:02:28.051Z,1.50
2018-03-30T21:04:54.512Z,2.00
2018-03-30T21:07:20.969Z,2.00
2018-03-30T21:09:47.441Z,1.57
2018-03-30T21:12:13.884Z,2.43
2018-03-30T21:14:40.494Z,2.30
2018-03-30T21:17:06.946Z,1.97
2018-03-30T21:19:34.216Z,1.83
2018-03-30T21:22:00.654Z,2.40
2018-03-30T21:24:27.117Z,2.63
2018-03-30T21:26:54.182Z,2.80
2018-03-30T21:29:21.465Z,2.70
2018-03-30T21:31:47.882Z,2.40
2018-03-30T21:34:14.305Z,2.23
2018-03-30T21:36:40.784Z,2.67
2018-03-30T21:39:07.773Z,2.27
2018-03-30T21:41:34.229Z,1.80
2018-03-30T21:44:00.722Z,2.47
2018-03-30T21:46:27.236Z,2.70
2018-03-30T21:48:53.672Z,4.20
2018-03-30T21:51:20.154Z,1.83
2018-03-30T21:53:47.088Z,2.23
2018-03-30T21:56:14.022Z,2.00
2018-03-30T21:58:40.486Z,2.20
2018-03-30T22:01:06.926Z,2.70
2018-03-30T22:03:34.950Z,2.20
2018-03-30T22:06:01.447Z,2.20
2018-03-30T22:08:30.782Z,2.47
2018-03-30T22:10:57.228Z,2.17
2018-03-30T22:13:23.708Z,2.57
2018-03-30T22:15:52.131Z,2.93
2018-03-30T22:18:18.554Z,2.57
2018-03-30T22:20:44.978Z,2.83
2018-03-30T22:23:12.993Z,3.40
2018-03-30T22:25:40.245Z,2.70
2018-03-30T22:28:06.710Z,3.10
2018-03-30T22:30:33.972Z,2.90
2018-03-30T22:33:00.819Z,2.83
2018-03-30T22:35:27.245Z,2.63
2018-03-30T22:37:53.674Z,2.90
2018-03-30T22:40:20.640Z,3.03
2018-03-30T22:42:47.920Z,3.40
2018-03-30T22:45:14.559Z,2.93
2018-03-30T22:47:40.995Z,3.30
2018-03-30T22:50:07.432Z,2.80
2018-03-30T22:55:06.394Z,3.03
2018-03-30T22:57:33.997Z,2.60
2018-03-30T23:00:00.406Z,2.73
2018-03-30T23:02:26.927Z,2.87
2018-03-30T23:04:53.378Z,3.23
2018-03-30T23:07:19.810Z,2.90
2018-03-30T23:09:46.271Z,3.67
2018-03-30T23:12:12.892Z,3.67
2018-03-30T23:14:39.348Z,3.13
2018-03-30T23:17:05.752Z,3.40
2018-03-30T23:19:32.193Z,3.70
2018-03-30T23:21:58.609Z,3.40
2018-03-30T23:24:25.062Z,3.27
2018-03-30T23:26:51.554Z,3.07
2018-03-30T23:29:17.976Z,3.50
2018-03-30T23:31:44.436Z,3.40
2018-03-30T23:34:10.887Z,3.73
2018-03-30T23:36:37.317Z,3.90
2018-03-30T23:39:04.841Z,4.33
2018-03-30T23:41:31.286Z,3.90
2018-03-30T23:43:57.802Z,4.10
2018-03-30T23:46:24.229Z,4.10
2018-03-30T23:48:50.697Z,4.00
2018-03-30T23:51:17.118Z,4.63
2018-03-30T23:53:43.536Z,4.87
2018-03-30T23:56:09.990Z,5.43
2018-03-30T23:58:36.520Z,5.13
